Home > Products > Valid Products > TAF

000
FTUS43 KMPX 310800 AAA
TAFSTC
TAF AMD
KSTC 310851Z 3109/0106 35008KT P6SM FEW040
     FM312100 VRB03KT P6SM SKC=



000
FTUS43 KMPX 310800 AAA
TAFMSP
TAF AMD
KMSP 310821Z 3108/0112 35013G19KT P6SM FEW035
     FM311000 35014KT P6SM SCT040
     FM311800 35008KT P6SM FEW040
     FM312300 33005KT P6SM SKC=



000
FTUS43 KMPX 310600 AAA
TAFRWF
TAF AMD
KRWF 310603Z 3106/0106 35013KT P6SM SKC
     FM311100 35007KT P6SM FEW045
     FM312200 VRB03KT P6SM SKC=



000
FTUS43 KMPX 310500
TAFEAU
TAF
KEAU 310520Z 3106/0106 33011G18KT P6SM BKN045
     FM310900 34012KT P6SM SCT040
     FM311300 34014G22KT P6SM BKN035
     FM311900 36012KT P6SM SCT040
     FM312300 36004KT P6SM SKC=



000
FTUS43 KMPX 310500
TAFAXN
TAF
KAXN 310520Z 3106/0106 01013KT P6SM SKC
     FM311200 03006KT P6SM FEW040
     FM312000 20005KT P6SM SKC
     FM010000 15006KT P6SM SKC=



000
FTUS43 KMPX 310500
TAFRWF
TAF
KRWF 310520Z 3106/0106 35013G19KT P6SM SKC
     FM311100 35007KT P6SM FEW045
     FM312200 VRB03KT P6SM SKC=



000
FTUS43 KMPX 310500
TAFMSP
TAF
KMSP 310520Z 3106/0112 34016G21KT P6SM FEW050
     FM311000 35014KT P6SM SCT045
     FM311800 35008KT P6SM FEW040
     FM312300 33005KT P6SM SKC=



000
FTUS43 KMPX 310500
TAFSTC
TAF
KSTC 310520Z 3106/0106 36012G18KT P6SM SKC
     FM311000 35008KT P6SM FEW040
     FM312100 VRB03KT P6SM SKC=



000
FTUS43 KMPX 310200 AAA
TAFMSP
TAF AMD
KMSP 310249Z 3103/0106 35020G30KT P6SM BKN050
     FM310500 35018G26KT P6SM SCT050
     FM310900 35015KT P6SM SKC
     FM311500 36010KT P6SM SKC=



000
FTUS43 KMPX 302300
TAFRWF
TAF
KRWF 302337Z 3100/3124 34016G25KT P6SM OVC030
      TEMPO 3100/3103 OVC035
     FM310300 34017G24KT P6SM BKN035
     FM310500 34012KT P6SM SKC
     FM311200 36006KT P6SM SKC=



000
FTUS43 KMPX 302300
TAFMSP
TAF
KMSP 302337Z 3100/0106 33018G27KT P6SM OVC035
     FM310500 34014G20KT P6SM BKN045
     FM310800 35014KT P6SM SKC
     FM311500 36010KT P6SM SKC=



000
FTUS43 KMPX 302300
TAFSTC
TAF
KSTC 302337Z 3100/3124 34018G25KT P6SM OVC035
     FM310400 34017G24KT P6SM SCT040
     FM310700 34012KT P6SM SKC
     FM311200 36005KT P6SM SKC=



000
FTUS43 KMPX 302300
TAFAXN
TAF
KAXN 302337Z 3100/3124 35018G26KT P6SM OVC035
     FM310300 35017G24KT P6SM BKN040
     FM310600 35012KT P6SM SKC
     FM311200 02006KT P6SM SKC=



000
FTUS43 KMPX 302300
TAFEAU
TAF
KEAU 302337Z 3100/3124 32012G20KT P6SM BKN025 OVC035
      TEMPO 3100/3102 SCT025 OVC035
     FM310200 33016G23KT P6SM SCT025 OVC035
     FM310700 34013KT P6SM BKN045
     FM311000 34011KT P6SM SKC
     FM311500 36012G18KT P6SM SKC=



000
FTUS43 KMPX 302000 AAA
TAFEAU
TAF AMD
KEAU 302054Z 3021/3118 34009KT P6SM SCT025 OVC040
     FM302300 33014G22KT P6SM BKN025
     FM310500 33012KT P6SM SCT030
     FM311400 36013G21KT P6SM SKC=



000
FTUS43 KMPX 302000 AAA
TAFRWF
TAF AMD
KRWF 302053Z 3021/3118 34014G22KT P6SM BKN025
     FM310100 34017G24KT P6SM SCT025 BKN035
     FM310500 34012KT P6SM SKC
     FM311200 36006KT P6SM SKC=



000
FTUS43 KMPX 302000 AAA
TAFSTC
TAF AMD
KSTC 302051Z 3021/3118 35013G20KT P6SM BKN022
     FM310000 34016G26KT P6SM SCT025
     FM310600 33012KT P6SM SKC
     FM311200 36005KT P6SM SKC=



000
FTUS43 KMPX 302000 AAA
TAFMSP
TAF AMD
KMSP 302050Z 3021/3124 35010KT P6SM SCT030 OVC050
     FM302200 34014G20KT P6SM BKN025 OVC040
     FM310100 34018G26KT P6SM BKN035
     FM310800 33014KT P6SM SKC
     FM311500 35010KT P6SM SKC=



000
FTUS43 KMPX 302000 AAA
TAFAXN
TAF AMD
KAXN 302050Z 3021/3118 36015G23KT P6SM BKN025
     FM302300 35018G25KT P6SM SCT020
     FM310600 35012KT P6SM SKC
     FM311200 02005KT P6SM SKC=



000
FTUS43 KMPX 301700
TAFAXN
TAF
KAXN 301736Z 3018/3118 36012G18KT P6SM BKN012 OVC020
     FM302100 35018G25KT P6SM SCT020 BKN035
     FM310300 35012KT P6SM SKC
     FM311200 02005KT P6SM SKC=



000
FTUS43 KMPX 301700
TAFMSP
TAF
KMSP 301736Z 3018/3124 35005KT P6SM SCT030 OVC050
     FM302000 34014G20KT P6SM SCT025 OVC040
     FM310000 34018G26KT P6SM BKN035
     FM310600 33014KT P6SM SKC
     FM311500 35010KT P6SM SKC=



000
FTUS43 KMPX 301700
TAFRWF
TAF
KRWF 301736Z 3018/3118 34010KT P6SM OVC040
     FM301930 34012G20KT P6SM OVC025
     FM302300 34017G24KT P6SM SCT025 BKN035
     FM310500 34012KT P6SM SKC
     FM311200 36006KT P6SM SKC=



000
FTUS43 KMPX 301700
TAFEAU
TAF
KEAU 301736Z 3018/3118 31007KT P6SM SCT050 OVC080
     FM302100 33011KT P6SM SCT025 OVC040
      TEMPO 3022/3024 BKN025
     FM310000 33014G22KT P6SM SCT025 BKN040
     FM310600 33012KT P6SM SCT030
     FM311400 36013G21KT P6SM SKC=



000
FTUS43 KMPX 301700
TAFSTC
TAF
KSTC 301736Z 3018/3118 01008KT P6SM SCT030 OVC040
     FM302000 35012G18KT P6SM SCT025 OVC035
      TEMPO 3020/3022 BKN025
     FM302200 34015G26KT P6SM SCT025 BKN035
     FM310300 33012KT P6SM SKC
     FM311200 36005KT P6SM SKC=



000
FTUS43 KMPX 301700
TAFAXN
TAF
KAXN 301736Z 3018/3118 36012G18KT P6SM BKN012 OVC020
     FM302100 35018G25KT P6SM SCT020 BKN035
     FM310300 35012KT P6SM SKC
     FM311200 02005KT P6SM SKC=



000
FTUS43 KMPX 301700
TAFRWF
TAF
KRWF 301736Z 3018/3118 34010KT P6SM OVC040
     FM301930 34012G20KT P6SM OVC025
     FM302300 34017G24KT P6SM SCT025 BKN035
     FM310500 34012KT P6SM SKC
     FM311200 36006KT P6SM SKC=



000
FTUS43 KMPX 301700
TAFEAU
TAF
KEAU 301736Z 3018/3118 31007KT P6SM SCT050 OVC080
     FM302100 33011KT P6SM SCT025 OVC040
      TEMPO 3022/3024 BKN025
     FM310000 33014G22KT P6SM SCT025 BKN040
     FM310600 33012KT P6SM SCT030
     FM311400 36013G21KT P6SM SKC=



000
FTUS43 KMPX 301700
TAFSTC
TAF
KSTC 301736Z 3018/3118 01008KT P6SM SCT030 OVC040
     FM302000 35012G18KT P6SM SCT025 OVC035
      TEMPO 3020/3022 BKN025
     FM302200 34015G26KT P6SM SCT025 BKN035
     FM310300 33012KT P6SM SKC
     FM311200 36005KT P6SM SKC=



000
FTUS43 KMPX 301700
TAFMSP
TAF
KMSP 301736Z 3018/3124 35005KT P6SM SCT030 OVC050
     FM302000 34014G20KT P6SM SCT025 OVC040
     FM310000 34018G26KT P6SM BKN035
     FM310600 33014KT P6SM SKC
     FM311500 35010KT P6SM SKC=



000
FTUS43 KMPX 301500 AAA
TAFMSP
TAF AMD
KMSP 301500Z 3015/3118 VRB03KT P6SM SCT035 OVC050
     FM301800 36005KT P6SM SCT025 OVC040
     FM302000 34014G20KT P6SM BKN025 OVC040
     FM302300 34018G26KT P6SM BKN035
     FM310600 33014KT P6SM SKC=



000
FTUS43 KMPX 301100
TAFMSP
TAF
KMSP 301125Z 3012/3118 12004KT P6SM VCSH SCT035 BKN060
     FM301800 36008KT P6SM SCT025 BKN035 OVC050
     FM302000 34014G20KT P6SM BKN025
     FM302300 34018G26KT P6SM BKN035
     FM310600 33014KT P6SM SKC=



000
FTUS43 KMPX 301100
TAFRWF
TAF
KRWF 301125Z 3012/3112 15003KT P6SM SCT060 OVC090
     FM301600 33007KT P6SM SCT025
     FM301900 34012G20KT P6SM BKN025
     FM302200 34015G22KT P6SM SCT025 BKN035
     FM310500 34012KT P6SM SKC=



000
FTUS43 KMPX 301100
TAFEAU
TAF
KEAU 301125Z 3012/3112 VRB03KT P6SM VCSH SCT050 BKN090
     FM301800 33007KT P6SM SCT050 OVC090
     FM302100 33011KT P6SM VCSH BKN025 OVC040
     FM310000 33014G22KT P6SM SCT025 BKN040
     FM310600 33013KT P6SM SKC=



000
FTUS43 KMPX 301100
TAFSTC
TAF
KSTC 301125Z 3012/3112 15003KT P6SM VCSH SCT025 BKN040
     FM301730 01008KT P6SM BKN020
     FM302000 35012G18KT P6SM VCSH OVC025
     FM302200 34015G26KT P6SM SCT025 BKN035
     FM310300 33012KT P6SM SKC=



000
FTUS43 KMPX 301100
TAFAXN
TAF
KAXN 301125Z 3012/3112 10003KT P6SM VCSH SCT020 BKN035
     FM301500 36012G18KT P6SM BKN020
     FM302000 35018G25KT P6SM SCT020 BKN035
     FM310300 35012KT P6SM SKC=



000
FTUS43 KMPX 300800 AAA
TAFMSP
TAF AMD
KMSP 300851Z 3009/3112 12004KT P6SM SCT050 BKN090
     FM301400 11004KT P6SM VCSH SCT035 OVC050
     FM301800 36009KT P6SM SCT025 BKN035 OVC050
     FM302200 34014G20KT P6SM BKN025
     FM310200 34018G27KT P6SM BKN035=



000
FTUS43 KMPX 300500
TAFSTC
TAF
KSTC 300521Z 3006/3106 15003KT P6SM VCSH SCT035 BKN050
     FM301400 01003KT P6SM SCT025 OVC050
     FM301800 35012G18KT P6SM VCSH OVC025
     FM302100 34015G23KT P6SM SCT025 BKN035=



000
FTUS43 KMPX 300500
TAFAXN
TAF
KAXN 300521Z 3006/3106 15005KT P6SM VCSH SCT035 BKN050
     FM301200 36005KT P6SM SCT020 OVC035
     FM301500 36012G18KT P6SM OVC020
     FM302000 35018G25KT P6SM SCT020 BKN035=



000
FTUS43 KMPX 300500
TAFMSP
TAF
KMSP 300521Z 3006/3112 12003KT P6SM SCT080 BKN110 OVC250
     FM300900 16003KT P6SM SCT060 OVC090
     FM301400 25004KT P6SM VCSH SCT040 OVC060
     FM301800 34009KT P6SM BKN030 OVC050
     FM302200 34014G20KT P6SM OVC035
     FM310200 34018G27KT P6SM BKN035=



000
FTUS43 KMPX 300500
TAFRWF
TAF
KRWF 300521Z 3006/3106 15004KT P6SM SCT070 BKN110
     FM300800 18004KT P6SM VCSH SCT050 OVC070
     FM301300 30007KT P6SM SCT025 OVC045
     FM301700 34012G19KT P6SM BKN025 OVC045
     FM302200 34015G22KT P6SM SCT025 BKN045=



000
FTUS43 KMPX 300500
TAFEAU
TAF
KEAU 300521Z 3006/3106 00000KT P6SM BKN250
     FM301000 19002KT P6SM BKN150
     FM301700 26006KT P6SM SCT050 OVC090
     FM302000 32009KT P6SM VCSH BKN025 OVC040
     FM302300 33014G21KT P6SM SCT025 BKN040=



000
FTUS43 KMPX 300200 AAA
TAFMSP
TAF AMD
KMSP 300256Z 3003/3106 12003KT P6SM SCT110 BKN250
     FM300600 14004KT P6SM BKN110
     FM300900 17003KT P6SM SCT050 OVC090
     FM301400 32006KT P6SM VCSH SCT030 OVC050
     FM301800 34009KT P6SM BKN030 OVC050
     FM302200 34015G22KT P6SM BKN035=



000
FTUS43 KMPX 292300
TAFEAU
TAF
KEAU 292333Z 3000/3024 26005KT P6SM BKN030
      TEMPO 3000/3002 SCT030
     FM300200 21003KT P6SM SCT030 BKN250
     FM301000 17003KT P6SM SCT050 OVC100
     FM301700 29006KT P6SM SCT030 OVC050
     FM301900 32009KT P6SM VCSH BKN030 OVC050=



000
FTUS43 KMPX 292300
TAFMSP
TAF
KMSP 292333Z 3000/3106 18004KT P6SM SCT110 BKN250
     FM300600 17004KT P6SM BKN110
     FM300900 18003KT P6SM SCT045 OVC080
     FM301400 32006KT P6SM VCSH SCT030 OVC050
     FM301800 34009KT P6SM BKN030 OVC050
     FM302200 34015G22KT P6SM BKN035=



000
FTUS43 KMPX 292300
TAFSTC
TAF
KSTC 292333Z 3000/3024 17006KT P6SM BKN023
      TEMPO 3000/3002 SCT023 BKN250
     FM300200 18003KT P6SM SCT025 BKN150
     FM300600 VRB03KT P6SM SCT050 OVC100
     FM301100 01003KT P6SM VCSH SCT025 OVC050
     FM301500 35010KT P6SM OVC025
     FM302000 34014G22KT P6SM BKN035=



000
FTUS43 KMPX 292300
TAFRWF
TAF
KRWF 292333Z 3000/3024 17004KT P6SM SCT100 BKN250
     FM300300 17006KT P6SM BKN110
     FM300800 20004KT P6SM VCSH SCT050 OVC090
     FM301300 31010KT P6SM SCT020 OVC040
     FM301700 34012G19KT P6SM BKN020 OVC035
     FM302200 34015G22KT P6SM SCT020 BKN035=



000
FTUS43 KMPX 292300
TAFAXN
TAF
KAXN 292333Z 3000/3024 17005KT P6SM SCT018 BKN150
     FM300400 18005KT P6SM SCT050 OVC080
     FM300800 20004KT P6SM VCSH OVC050
     FM301300 35012G18KT P6SM OVC020
     FM301900 35018G25KT P6SM BKN035=



000
FTUS43 KMPX 292200 AAA
TAFEAU
TAF AMD
KEAU 292229Z 2922/3018 29006KT P6SM BKN029
      TEMPO 2923/2924 SCT029
     FM300000 25006KT P6SM SCT030
     FM300200 VRB02KT P6SM SCT040 SCT110
     FM300900 17004KT P6SM BKN090=



000
FTUS43 KMPX 292200 AAB
TAFSTC
TAF AMD
KSTC 292228Z 2922/3018 24004KT P6SM BKN024
      TEMPO 2923/2924 SCT024 BKN120
     FM300000 17006KT P6SM SCT024 BKN120
     FM300300 VRB03KT P6SM BKN100
     FM301200 36003KT P6SM OVC050
     FM301600 35007KT P6SM OVC025=



000
FTUS43 KMPX 292000 AAA
TAFMSP
TAF AMD
KMSP 292054Z 2921/3024 25005KT P6SM OVC023
     FM292200 24004KT P6SM SCT025
     FM300300 17005KT P6SM BKN110
     FM301200 VRB03KT P6SM OVC050
     FM301800 33009KT P6SM BKN030 OVC045=



000
FTUS43 KMPX 292000 AAA
TAFSTC
TAF AMD
KSTC 292027Z 2920/3018 26007KT P6SM OVC020
     FM292130 17006KT P6SM SCT025
     FM300300 VRB03KT P6SM BKN100
     FM301200 36003KT P6SM OVC050
     FM301600 35007KT P6SM OVC025=



000
FTUS43 KMPX 292000 AAA
TAFAXN
TAF AMD
KAXN 292001Z 2920/3018 20007KT P6SM SCT021
     FM292100 19005KT P6SM BKN110
     FM300400 17005KT P6SM VCSH SCT050 BKN080
     FM300900 20004KT P6SM OVC050
     FM301300 35012KT P6SM OVC020=



000
FTUS43 KMPX 291700
TAFEAU
TAF
KEAU 291737Z 2918/3018 28009KT P6SM OVC025
     FM291900 28007KT P6SM BKN025
     FM292200 25006KT P6SM SCT030
     FM300000 VRB02KT P6SM SCT040 SCT110
     FM300900 17004KT P6SM BKN090=



000
FTUS43 KMPX 291700
TAFRWF
TAF
KRWF 291737Z 2918/3018 29007KT P6SM BKN020
     FM291900 24004KT P6SM SCT250
     FM300400 17006KT P6SM BKN110
     FM300900 25004KT P6SM OVC080
     FM301300 33012KT P6SM SCT020 OVC040=



000
FTUS43 KMPX 291700
TAFSTC
TAF
KSTC 291737Z 2918/3018 26007KT P6SM OVC020
     FM292300 17006KT P6SM SCT025
     FM300300 VRB03KT P6SM BKN100
     FM301200 36003KT P6SM OVC050
     FM301600 35007KT P6SM OVC025=



000
FTUS43 KMPX 291700
TAFAXN
TAF
KAXN 291737Z 2918/3018 26007KT P6SM OVC021
     FM292100 20005KT P6SM BKN110
     FM300400 17005KT P6SM VCSH SCT050 BKN080
     FM300900 20004KT P6SM OVC050
     FM301300 35012KT P6SM OVC020=



000
FTUS43 KMPX 291700
TAFMSP
TAF
KMSP 291737Z 2918/3024 28007KT P6SM OVC025
     FM292200 24006KT P6SM SCT035
     FM300300 17005KT P6SM BKN110
     FM301200 VRB03KT P6SM OVC050
     FM301800 33009KT P6SM BKN030 OVC045=



000
FTUS43 KMPX 291500 AAA
TAFEAU
TAF AMD
KEAU 291509Z 2915/3012 32009KT P6SM OVC020
     FM291900 28007KT P6SM BKN025
     FM292200 26006KT P6SM BKN035
     FM300000 VRB02KT P6SM SCT040 SCT110
     FM300900 17004KT P6SM BKN090=



000
FTUS43 KMPX 291500 AAA
TAFRWF
TAF AMD
KRWF 291506Z 2915/3012 32006KT P6SM OVC022
     FM291700 28006KT P6SM BKN030
     FM291930 22007KT P6SM SCT250
     FM300600 17006KT P6SM BKN110=



000
FTUS43 KMPX 291500 AAA
TAFSTC
TAF AMD
KSTC 291501Z 2915/3012 28007KT P6SM OVC015
     FM291800 31007KT P6SM BKN025
     FM292300 27006KT P6SM SCT035
     FM300200 19005KT P6SM BKN110
     FM300600 16006KT P6SM VCSH BKN070=



000
FTUS43 KMPX 291400 AAA
TAFAXN
TAF AMD
KAXN 291458Z 2915/3012 30008KT P6SM OVC017
     FM291800 26006KT P6SM BKN025
     FM292200 20005KT P6SM SCT035 SCT110
     FM300300 16008KT P6SM VCSH SCT050 BKN080
     FM300800 18007KT P6SM OVC050=



000
FTUS43 KMPX 291400 AAA
TAFMSP
TAF AMD
KMSP 291454Z 2915/3018 30010KT P6SM BKN025
     FM291800 28007KT P6SM BKN030
     FM292100 27006KT P6SM SCT035
     FM300000 21005KT P6SM BKN110
     FM300900 16006KT P6SM VCSH BKN060=



000
FTUS43 KMPX 291100
TAFEAU
TAF
KEAU 291128Z 2912/3012 29012KT P6SM OVC020
     FM291600 31010G18KT P6SM BKN025
     FM292200 28006KT P6SM BKN035
     FM300000 VRB02KT P6SM SCT040 SCT110
     FM300900 17004KT P6SM BKN090=



000
FTUS43 KMPX 291100
TAFAXN
TAF
KAXN 291128Z 2912/3012 31012KT P6SM BKN018 BKN040
     FM291500 31006KT P6SM BKN025
     FM291800 27005KT P6SM SCT035 SCT110
     FM300300 18008KT P6SM VCSH BKN110=



000
FTUS43 KMPX 291100
TAFMSP
TAF
KMSP 291128Z 2912/3018 30012G18KT P6SM SCT015 BKN020 OVC040
     FM291800 30007KT P6SM BKN030
     FM292100 27006KT P6SM SCT035
     FM300000 21005KT P6SM SCT110
     FM300900 16006KT P6SM VCSH BKN090=



000
FTUS43 KMPX 291100
TAFRWF
TAF
KRWF 291128Z 2912/3012 30010KT P6SM BKN025
     FM291700 27006KT P6SM SCT200
     FM292100 22007KT P6SM SCT110 BKN250
     FM300600 17006KT P6SM BKN110=



000
FTUS43 KMPX 291100
TAFSTC
TAF
KSTC 291128Z 2912/3012 30012KT P6SM BKN015 OVC040
     FM291600 31007KT P6SM BKN025
     FM291930 27006KT P6SM SCT035
     FM300000 19005KT P6SM BKN110
     FM300600 16006KT P6SM VCSH BKN090=



000
FTUS43 KMPX 290800 AAA
TAFMSP
TAF AMD
KMSP 290845Z 2909/3012 30012G22KT P6SM SCT025 OVC050
     FM291030 30010G18KT P6SM SCT015 BKN020 BKN040
     FM291800 30007KT P6SM BKN030
     FM292100 27005KT P6SM SCT040
     FM300600 16006KT P6SM SCT110=



000
FTUS43 KMPX 290500
TAFMSP
TAF
KMSP 290523Z 2906/3012 29015G22KT P6SM BKN025 OVC050
     FM290900 30012KT P6SM SCT015 BKN020 BKN040
     FM291800 30007KT P6SM BKN030
     FM292100 27005KT P6SM SCT040
     FM300600 16006KT P6SM SCT110=



000
FTUS43 KMPX 290500
TAFAXN
TAF
KAXN 290523Z 2906/3006 31012G20KT P6SM SCT010 BKN020 BKN040
     FM291500 31006KT P6SM BKN025
     FM291800 27005KT P6SM SCT035 SCT110
     FM300300 18008KT P6SM VCSH BKN110=



000
FTUS43 KMPX 290500
TAFEAU
TAF
KEAU 290523Z 2906/3006 28012G22KT P6SM SCT015 BKN025 OVC050
     FM290700 29012G20KT P6SM SCT010 BKN015 OVC040
     FM291600 30008KT P6SM OVC025
     FM292200 28006KT P6SM BKN035
     FM300000 VRB02KT P6SM SCT040 SCT110=



000
FTUS43 KMPX 290500
TAFSTC
TAF
KSTC 290523Z 2906/3006 30014G22KT P6SM SCT010 BKN020 OVC040
     FM290800 31012G20KT P6SM BKN015 OVC040
     FM291500 30006KT P6SM BKN025
     FM291800 30006KT P6SM SCT035
     FM300000 19005KT P6SM BKN110=



000
FTUS43 KMPX 290500
TAFRWF
TAF
KRWF 290523Z 2906/3006 30012G20KT P6SM SCT025 BKN035 OVC050
     FM290900 30010KT P6SM BKN040
     FM291500 30006KT P6SM SCT200
     FM292100 22007KT P6SM SCT110 BKN250=



000
FTUS43 KMPX 290200 AAA
TAFAXN
TAF AMD
KAXN 290258Z 2903/2924 31014G22KT P6SM SCT015 OVC025
     FM290600 31012KT P6SM OVC015
     FM291500 32007KT P6SM BKN025 BKN040
     FM291800 28005KT P6SM SCT035 BKN050=



000
FTUS43 KMPX 290200 AAA
TAFSTC
TAF AMD
KSTC 290256Z 2903/2924 30015G22KT P6SM SCT015 BKN025 OVC040
     FM290600 31012G20KT P6SM BKN015 OVC040
     FM290900 31012KT P6SM BKN015 OVC040
     FM291500 30006KT P6SM BKN025 BKN040
     FM291800 30006KT P6SM SCT035 BKN050=



000
FTUS43 KMPX 290200 AAA
TAFEAU
TAF AMD
KEAU 290253Z 2903/2924 28015G22KT P6SM VCSH SCT015 BKN025 OVC040
     FM290800 29012KT P6SM SCT010 BKN015 OVC040
     FM291600 30008KT P6SM OVC025
     FM292100 28007KT P6SM BKN035=



000
FTUS43 KMPX 290200 AAA
TAFMSP
TAF AMD
KMSP 290251Z 2903/3006 29015G22KT P6SM BKN025 OVC050
     FM290900 30012KT P6SM SCT015 BKN020 BKN040
     FM291800 30007KT P6SM SCT025 SCT250=



000
FTUS43 KMPX 282300
TAFMSP
TAF
KMSP 282339Z 2900/3006 28015G23KT P6SM FEW025 BKN040
      TEMPO 2900/2901 -SHRA
     FM290300 29012KT P6SM SCT025 BKN040
     FM291000 32006KT P6SM BKN025 BKN040
     FM291700 28007KT P6SM SCT025 SCT250=



000
FTUS43 KMPX 282300
TAFEAU
TAF
KEAU 282339Z 2900/2924 26013G22KT P6SM SCT030 OVC045
      TEMPO 2900/2902 -SHRA BKN030 OVC040
     FM290200 28011KT P6SM SCT030 OVC045
     FM290800 30010KT P6SM SCT011 OVC018
     FM291600 30008KT P6SM OVC025
     FM292100 28007KT P6SM BKN035=



000
FTUS43 KMPX 282300
TAFSTC
TAF
KSTC 282339Z 2900/2924 30013G19KT P6SM OVC025
     FM290400 31009KT P6SM SCT025 OVC040
     FM290900 31007KT P6SM BKN020 OVC040
     FM291700 30006KT P6SM SCT025 BKN040=



000
FTUS43 KMPX 282300
TAFRWF
TAF
KRWF 282339Z 2900/2924 30016G25KT P6SM OVC035
     FM290200 30010KT P6SM SCT035 BKN050
     FM290600 30008KT P6SM SCT025
     FM291500 29006KT P6SM SCT200=



000
FTUS43 KMPX 282300
TAFAXN
TAF
KAXN 282339Z 2900/2924 30014G22KT P6SM OVC025
     FM290300 30012KT P6SM OVC035
     FM290800 32007KT P6SM BKN015 BKN030
     FM291700 30005KT P6SM SCT020 SCT200=



000
FTUS43 KMPX 282000 AAA
TAFMSP
TAF AMD
KMSP 282049Z 2821/2924 28015G25KT P6SM OVC035
      TEMPO 2821/2824 -SHRA
     FM290200 29012KT P6SM SCT025 BKN040
     FM291000 31006KT P6SM SCT018 BKN040
     FM291700 28007KT P6SM SCT025 SCT250=



000
FTUS43 KMPX 282000 AAA
TAFEAU
TAF AMD
KEAU 282002Z 2820/2918 26012G20KT P6SM SCT025 OVC040
     FM290200 28011KT P6SM FEW025 OVC040
     FM290800 30010KT P6SM SCT011 OVC018
     FM291600 30008KT P6SM OVC025=



000
FTUS43 KMPX 281700
TAFAXN
TAF
KAXN 281720Z 2818/2918 30017G27KT P6SM BKN015 OVC030
     FM290000 30013KT P6SM SCT020 BKN035
     FM290800 32007KT P6SM BKN015 BKN030
     FM291700 30005KT P6SM SCT020 SCT200=



000
FTUS43 KMPX 281700
TAFMSP
TAF
KMSP 281720Z 2818/2924 27012G22KT P6SM BKN025 OVC040
     FM282100 28015G24KT P6SM SCT025 BKN040
     FM290200 29012KT P6SM SCT025 BKN040
     FM291000 31006KT P6SM SCT018 BKN040
     FM291700 28007KT P6SM SCT025 SCT250=



000
FTUS43 KMPX 281700
TAFEAU
TAF
KEAU 281720Z 2818/2918 26012G20KT P6SM BKN020 OVC035
     FM282200 28015G22KT P6SM SCT025 BKN040
     FM290200 28011KT P6SM FEW025 BKN040
     FM290800 30010KT P6SM SCT011 OVC018
     FM291600 30008KT P6SM OVC025=



000
FTUS43 KMPX 281700
TAFRWF
TAF
KRWF 281720Z 2818/2918 29020G30KT P6SM BKN018 OVC030
     FM282100 30017G27KT P6SM SCT020 BKN035
     FM290100 29010KT P6SM FEW025 BKN050
     FM290600 30010KT P6SM SCT025
     FM291500 30006KT P6SM SCT200=



000
FTUS43 KMPX 281700
TAFSTC
TAF
KSTC 281720Z 2818/2918 29015G24KT P6SM BKN018 OVC040
     FM290000 30012KT P6SM SCT025 BKN040
     FM290900 31007KT P6SM BKN020 OVC040
     FM291700 30006KT P6SM SCT025 BKN040=



000
FTUS43 KMPX 281500 CCA
TAFMSP
TAF COR
KMSP 281505Z 2815/2918 26012G20KT P6SM BKN018 OVC040
     FM281900 28017G24KT P6SM BKN025 OVC050
     FM290100 29013G20KT P6SM FEW030 OVC050
     FM290600 30008KT P6SM OVC100=



000
FTUS43 KMPX 281400 AAB
TAFMSP
TAF AMD
KMSP 281447Z 2815/2918 26012KT P6SM BKN018 OVC040
     FM281900 28017G24KT P6SM BKN025 OVC050
     FM290100 29013G20KT P6SM FEW030 OVC050
     FM290600 30008KT P6SM OVC100=



000
FTUS43 KMPX 281400 AAA
TAFEAU
TAF AMD
KEAU 281447Z 2815/2912 26012KT P6SM BKN020 OVC040
     FM282000 28017G24KT P6SM BKN030 OVC050
     FM290200 28013G19KT P6SM FEW030 OVC050
     FM290600 30010KT P6SM OVC060=



000
FTUS43 KMPX 281300 AAA
TAFAXN
TAF AMD
KAXN 281359Z 2814/2912 30012G20KT P6SM SCT005 OVC015
      TEMPO 2814/2816 6SM -RA OVC005
     FM281600 30020G30KT P6SM OVC015
     FM290000 30013G20KT P6SM BKN050
     FM290600 31009KT P6SM OVC100=



000
FTUS43 KMPX 281300 AAA
TAFMSP
TAF AMD
KMSP 281312Z 2813/2918 26012G18KT P6SM BKN020 OVC040
     FM282000 28017G24KT P6SM BKN030 OVC050
     FM290100 29013G20KT P6SM FEW030 OVC050
     FM290600 30008KT P6SM OVC100=



000
FTUS43 KMPX 281200 AAA
TAFSTC
TAF AMD
KSTC 281259Z 2813/2912 29014G20KT P6SM BKN015 OVC070
     FM281800 28020G30KT P6SM SCT025 OVC040
     FM290100 30015G22KT P6SM BKN050
     FM290600 31010KT P6SM OVC100=



000
FTUS43 KMPX 281100
TAFRWF
TAF
KRWF 281132Z 2812/2912 27018G25KT P6SM BKN025 OVC040
     FM281600 28020G27KT P6SM SCT025 OVC040
     FM290000 30015G21KT P6SM BKN050
     FM290600 30010KT P6SM BKN100=



000
FTUS43 KMPX 281100
TAFSTC
TAF
KSTC 281132Z 2812/2912 27011KT P6SM BKN050
     FM281400 29014G23KT P6SM BKN015 OVC040
     FM281800 28020G30KT P6SM SCT025 OVC040
     FM290100 30015G22KT P6SM BKN050
     FM290600 31010KT P6SM OVC100=



000
FTUS43 KMPX 281100
TAFEAU
TAF
KEAU 281132Z 2812/2912 28009KT P6SM SCT020 OVC060
     FM281600 27014G20KT P6SM OVC050
     FM282000 28017G24KT P6SM BKN030 OVC050
     FM290200 28013G19KT P6SM FEW030 OVC050
     FM290600 30010KT P6SM OVC060=



000
FTUS43 KMPX 281100
TAFAXN
TAF
KAXN 281132Z 2812/2912 29017G22KT P6SM BKN015 OVC040
      TEMPO 2812/2815 BKN009
     FM281500 30020G30KT P6SM OVC015
     FM290000 30013G20KT P6SM BKN050
     FM290600 31009KT P6SM OVC100=



000
FTUS43 KMPX 281100
TAFMSP
TAF
KMSP 281132Z 2812/2918 27012KT P6SM BKN050
     FM281500 27014G20KT P6SM BKN020 OVC040
     FM282000 28017G24KT P6SM BKN030 OVC050
     FM290100 29013G20KT P6SM FEW030 OVC050
     FM290600 30008KT P6SM OVC100=



    US Dept of Commerce
    National Oceanic and Atmospheric Administration
    National Weather Service
    1325 East West Highway
    Silver Spring, MD 20910
    Page Author: NWS Internet Services Team
Disclaimer
Information Quality
Credits
Glossary
Privacy Policy
Freedom of Information Act (FOIA)
About Us
Career Opportunities